キャンペーン明日までやってまーす!!

LUXURY FLIGHT

080-7560-1817

羽田空港本店:東京都大田区羽田空港3-3-2
第1旅客ターミナル5階
営業時間:10:00~20:00 定休日:年中無休
電話番号:080-7560-1817

セントレア店:愛知県常滑市セントレア1-1
FLIGHT OF DREAMS FLIGHT PARK
営業時間:10:00~20:00 定休日:年中無休
電話番号:080-4945-5666

lv

キャンペーン明日までやってまーす!!

STAFF BLOG

2020/01/09 キャンペーン明日までやってまーす!!

皆様、こんにちはーーーー

 

快晴の羽田周辺でございます!!

RJTT 090100Z 32017KT 9999 FEW030 13/M01 Q1010

NOSIG RMK 1CU030 A2983

 

 

おかげさまで、羽田店・セントレア店共に大盛況の「初飛びキャンペーン」でございますが、

お店が潰れる勢いで、バンバン景品が出ております

 

img_4500

 

しかも!!!

 

当たりが出た玉は、すぐにガラポン本体に戻すという

「キャッチ&リリース方式」を採用しているため…

 

いつまでも1等が出続けるシステムっっっっ

 

 

さーらーにー!!!!

 

img_4501

 

当たりが割と多い!!!!!

 

 

 

未だかつて、こんな優良企業があったでしょうか。

私は知りません。笑

 

ちなみに、社長には内緒で当たりの数を増やしています。笑

これは本当に本当に内緒。

 

 

そんなこんなで、一月も引き続き

フルスロットル営業中の羽田店ですーーーー!!!!

 

 

 

本日もブログを読んでくださり本当に有難うございました。

 

「感謝」

 

 

 

 

 

 

 

 

 

 

 

 

 

 

 

 

 

 

 

 

 

TOP